• Join FlightAware (Why Join?)
  • Login
  • US Flag 
06:13PM EDT


 

Airport Tracker/Info


-or-


 

Live Flight TrackerFlight Track Log ✈ JZA8489 ✈ 23-Apr-2013 ✈ CYQR - CYEG

Flight Track Log - Related Links

Times and Time Zones

All times are in EDT time to prevent confusion due to time zone crossing. See the JZA8489 flight status page for this flight to view local times or setup timezone preferences in your user account.

Time Position Orientation Groundspeed Altitude Reporting Facility
EDT Latitude Longitude Course Direction KTS MPH feet Rate Location/Type
07:23PM 50.4000 -104.6667 301° West 20 23 1,900  Level Winnipeg Center
07:24PM 50.4000 -104.6667 301° West 10 12 2,000 480 Climbing Winnipeg Center
07:25PM 50.4167 -104.7000 308° West 130 150 2,900 1,080 Climbing Winnipeg Center
07:26PM 50.4500 -104.7333 328° Northwest 140 161 4,200 1,320 Climbing Winnipeg Center
07:27PM 50.4833 -104.7833 316° Northwest 130 150 5,600 1,440 Climbing Winnipeg Center
07:28PM 50.5000 -104.8167 308° West 120 138 7,100 1,320 Climbing Winnipeg Center
07:29PM 50.6753 -104.9093 298° West  Level FlightAware Approximate
07:29PM 50.5167 -104.8667 298° West 120 138 8,300  Level Winnipeg Center
07:30PM 50.7093 -104.9907 301° West  Level FlightAware Approximate
07:30PM 50.5167 -104.9333 270° West 130 150 9,400  Level Winnipeg Center
07:31PM 50.5500 -104.9833 316° Northwest 130 150 10,800 1,200 Climbing Winnipeg Center
07:32PM 50.5667 -105.0167 308° West 130 150 11,800 1,200 Climbing Winnipeg Center
07:33PM 50.5833 -105.0667 298° West 140 161 13,200 1,200 Climbing Winnipeg Center
07:34PM 50.6167 -105.1333 308° West 140 161 14,300 1,020 Climbing Winnipeg Center
07:35PM 50.6167 -105.1833 270° West 150 173 15,300 900 Climbing Winnipeg Center
07:36PM 50.6500 -105.2333 316° Northwest 160 184 16,100 900 Climbing Winnipeg Center
07:37PM 50.6833 -105.3000 308° West 170 196 17,100 900 Climbing Winnipeg Center
07:38PM 50.7000 -105.3833 288° West 180 207 17,900 720 Climbing Winnipeg Center
07:39PM 50.7167 -105.4333 298° West 170 196 18,600 720 Climbing Winnipeg Center
07:40PM 50.7500 -105.5167 302° West 180 207 19,400 780 Climbing Winnipeg Center
07:41PM 50.7833 -105.5833 308° West 170 196 20,200 600 Climbing Winnipeg Center
07:42PM 50.8000 -105.6333 298° West 180 207 20,700 540 Climbing Winnipeg Center
07:43PM 50.8167 -105.6833 298° West 180 207 21,400 600 Climbing Edmonton Center
07:44PM 50.8333 -105.7333 298° West 180 207 22,000 300 Climbing Edmonton Center
07:45PM 50.8667 -105.8167 302° West 180 207 22,000  Level Edmonton Center
07:46PM 50.9000 -105.9000 302° West 200 230 22,000  Level Edmonton Center
07:47PM 50.9333 -105.9833 302° West 220 253 22,000  Level Edmonton Center
07:48PM 50.9667 -106.0667 302° West 220 253 22,000  Level Edmonton Center
07:49PM 50.9833 -106.1500 288° West 220 253 22,000  Level Edmonton Center
07:50PM 51.0167 -106.2500 298° West 220 253 22,000  Level Edmonton Center
07:51PM 51.0500 -106.3333 302° West 220 253 22,000  Level Edmonton Center
07:52PM 51.0833 -106.4167 303° West 220 253 22,000  Level Edmonton Center
07:53PM 51.1167 -106.5000 303° West 230 265 22,000  Level Edmonton Center
07:54PM 51.1333 -106.6000 285° West 230 265 22,000  Level Edmonton Center
07:55PM 51.1667 -106.6833 303° West 220 253 22,000  Level Edmonton Center
07:56PM 51.2000 -106.7667 303° West 220 253 22,000  Level Edmonton Center
07:57PM 51.2333 -106.8500 303° West 220 253 22,000  Level Edmonton Center
07:58PM 51.2667 -106.9333 303° West 220 253 22,000  Level Edmonton Center
07:59PM 51.3000 -107.0500 295° West 220 253 22,000  Level Edmonton Center
08:00PM 51.3167 -107.1167 292° West 220 253 22,000  Level Edmonton Center
08:01PM 51.3500 -107.2000 303° West 220 253 22,000  Level Edmonton Center
08:02PM 51.3833 -107.2833 303° West 220 253 22,000  Level Edmonton Center
08:03PM 51.4167 -107.3667 303° West 220 253 22,000  Level Edmonton Center
08:04PM 51.4500 -107.4500 303° West 220 253 22,000  Level Edmonton Center
08:05PM 51.4833 -107.5333 303° West 220 253 22,000  Level Edmonton Center
08:06PM 51.5000 -107.6167 288° West 220 253 22,000  Level Edmonton Center
08:07PM 51.5167 -107.7333 283° West 220 253 22,000  Level Edmonton Center
08:08PM 51.5500 -107.7833 317° Northwest 220 253 22,000  Level Edmonton Center
08:09PM 51.5833 -107.9000 295° West 220 253 22,000  Level Edmonton Center
08:10PM 51.6167 -107.9833 303° West 220 253 22,000  Level Edmonton Center
08:11PM 51.6500 -108.0667 303° West 220 253 22,000  Level Edmonton Center
08:12PM 51.6833 -108.1500 303° West 220 253 22,000  Level Edmonton Center
08:13PM 51.7000 -108.2333 288° West 220 253 22,000  Level Edmonton Center
08:14PM 51.7333 -108.3167 303° West 220 253 22,000  Level Edmonton Center
08:15PM 51.7667 -108.4000 303° West 220 253 22,000  Level Edmonton Center
08:16PM 51.7833 -108.5167 283° West 210 242 22,000  Level Edmonton Center
08:17PM 51.8167 -108.6000 303° West 220 253 22,000  Level Edmonton Center
08:18PM 51.8500 -108.6833 303° West 220 253 22,000  Level Edmonton Center
08:19PM 51.8833 -108.7667 303° West 220 253 22,000  Level Edmonton Center
08:20PM 51.9167 -108.8500 303° West 210 242 22,000  Level Edmonton Center
08:21PM 51.9333 -108.9333 288° West 210 242 22,000  Level Edmonton Center
08:22PM 51.9500 -109.0167 288° West 220 253 22,000  Level Edmonton Center
08:23PM 51.9833 -109.1000 303° West 220 253 22,000  Level Edmonton Center
08:24PM 52.0167 -109.2000 298° West 220 253 22,000  Level Edmonton Center
08:25PM 52.0500 -109.2833 303° West 220 253 22,000  Level Edmonton Center
08:26PM 52.0833 -109.3833 299° West 220 253 22,000  Level Edmonton Center
08:27PM 52.1000 -109.4833 285° West 220 253 22,000  Level Edmonton Center
08:28PM 52.1167 -109.5667 288° West 220 253 22,000  Level Edmonton Center
08:29PM 52.1500 -109.6500 303° West 220 253 22,000  Level Edmonton Center
08:30PM 52.1833 -109.7333 303° West 220 253 22,000  Level Edmonton Center
08:31PM 52.2167 -109.8167 303° West 260 299 22,000  Level Edmonton Center
08:32PM 52.2500 -109.9000 303° West 220 253 22,000  Level Edmonton Center
08:33PM 52.2667 -110.0000 285° West 220 253 22,000  Level Edmonton Center
08:34PM 52.3000 -110.1000 299° West 220 253 22,000  Level Edmonton Center
08:35PM 52.3167 -110.1833 288° West 220 253 22,000  Level Edmonton Center
08:36PM 52.3500 -110.2833 299° West 220 253 22,000  Level Edmonton Center
08:37PM 52.3833 -110.3667 303° West 210 242 22,000  Level Edmonton Center
08:38PM 52.4000 -110.4500 288° West 220 253 22,000  Level Edmonton Center
08:39PM 52.4333 -110.5333 303° West 220 253 22,000  Level Edmonton Center
08:40PM 52.4667 -110.6500 295° West 220 253 22,000  Level Winnipeg Center
08:40PM 52.4667 -110.6500 295° West 210 242 22,000  Level Edmonton Center
08:41PM 52.5000 -110.7833 292° West 220 253 22,000  Level Winnipeg Center
08:42PM 52.5333 -110.8333 318° Northwest 220 253 22,000  Level Winnipeg Center
08:43PM 52.5500 -110.9167 288° West 220 253 22,000  Level Edmonton Center
08:44PM 52.5667 -111.0000 288° West 210 242 22,000  Level Edmonton Center
08:45PM 52.6000 -111.0833 303° West 220 253 22,000  Level Edmonton Center
08:46PM 52.6167 -111.1833 285° West 220 253 22,000  Level Edmonton Center
08:47PM 52.6500 -111.2667 303° West 210 242 22,000  Level Edmonton Center
08:48PM 52.6833 -111.3500 303° West 210 242 22,000  Level Edmonton Center
08:49PM 52.6833 -111.4333 270° West 210 242 22,000  Level Edmonton Center
08:50PM 52.7167 -111.5333 299° West 210 242 22,000  Level Edmonton Center
08:51PM 52.7500 -111.6167 303° West 210 242 22,000  Level Edmonton Center
08:52PM 52.7833 -111.7000 304° West 210 242 22,000  Level Edmonton Center
08:53PM 52.8000 -111.8000 285° West 210 242 22,000 -360 Level Edmonton Center
08:54PM 52.8167 -111.8833 288° West 210 242 21,300 -900 Descending Edmonton Center
08:55PM 52.8500 -111.9667 304° West 230 265 20,300 -1,080 Descending Edmonton Center
08:56PM 52.8833 -112.0833 295° West 240 276 19,200 -1,140 Descending Edmonton Center
08:57PM 52.9167 -112.1833 299° West 240 276 18,100 -1,080 Descending Edmonton Center
08:58PM 52.9500 -112.3000 295° West 250 288 17,100 -1,140 Descending Edmonton Center
08:59PM 52.9667 -112.3833 288° West 250 288 15,900 -1,200 Descending Edmonton Center
09:00PM 53.0000 -112.5000 295° West 250 288 14,800 -1,140 Descending Edmonton Center
09:01PM 53.0167 -112.6167 283° West 240 276 13,700 -1,080 Descending Edmonton Center
09:02PM 53.0167 -112.7000 270° West 240 276 12,700 -1,140 Descending Edmonton Center
09:03PM 53.0500 -112.8167 295° West 250 288 11,500 -1,200 Descending Edmonton Center
09:04PM 53.0500 -112.9333 270° West 230 265 10,400 -1,020 Descending Edmonton Center
09:05PM 53.0667 -113.0333 286° West 220 253 9,500 -960 Descending Edmonton Center
09:06PM 53.0667 -113.1333 270° West 230 265 8,500 -960 Descending Edmonton Center
09:07PM 53.0833 -113.2500 283° West 220 253 7,600 -900 Descending Edmonton Center
09:08PM 53.1167 -113.3500 299° West 220 253 6,700 -1,080 Descending Edmonton Center
09:09PM 53.1333 -113.4167 293° West 200 230 5,500 -1,080 Descending Edmonton Center
09:10PM 53.1833 -113.4500 338° Northwest 180 207 4,600 -900 Descending Edmonton Center
09:11PM 53.2167 -113.5167 310° West 140 161 3,700 -900 Descending Edmonton Center